Time;durP1;ratioP1;P1;durP2;ratioP2;P2;SDS_P1;SDS_P2;PMS_P1;PMS_P2;Temp;Humidity;BMP_temperature;BMP_pressure;BME280_temperature;BME280_humidity;BME280_pressure;Samples;Min_cycle;Max_cycle;Signal;HPM_P1;HPM_P2
2022/07/19 00:01:34;;;;;;;2.13;1.80;;;19.00;99.90;;;;;;4920696;29;20389;-72
2022/07/19 00:04:00;;;;;;;3.78;2.65;;;19.00;99.90;;;;;;4916752;29;20042;-72
2022/07/19 00:06:25;;;;;;;3.83;2.45;;;18.90;99.90;;;;;;4917985;29;20036;-72
2022/07/19 00:08:51;;;;;;;3.88;2.08;;;18.90;99.90;;;;;;4913723;29;20032;-72
2022/07/19 00:11:17;;;;;;;2.53;1.95;;;18.90;99.90;;;;;;4916043;29;20051;-72
2022/07/19 00:13:43;;;;;;;2.70;1.90;;;18.80;99.90;;;;;;4914108;29;20040;-71
2022/07/19 00:16:08;;;;;;;2.58;2.35;;;18.80;99.90;;;;;;4906159;29;20491;-72
2022/07/19 00:18:34;;;;;;;2.85;2.53;;;18.80;99.90;;;;;;4916782;29;20225;-71
2022/07/19 00:21:00;;;;;;;3.75;2.50;;;18.70;99.90;;;;;;4909993;29;20123;-72
2022/07/19 00:23:25;;;;;;;2.70;1.88;;;18.60;99.90;;;;;;4915805;29;20079;-72
2022/07/19 00:25:51;;;;;;;2.38;2.20;;;18.60;99.90;;;;;;4914601;29;20054;-71
2022/07/19 00:28:17;;;;;;;2.90;2.30;;;18.50;99.90;;;;;;4917454;29;20043;-71
2022/07/19 00:30:43;;;;;;;2.50;2.30;;;18.50;99.90;;;;;;4915341;29;20156;-72
2022/07/19 00:33:09;;;;;;;2.95;2.40;;;18.40;99.90;;;;;;4919414;29;20544;-72
2022/07/19 00:35:36;;;;;;;3.80;2.08;;;18.40;99.90;;;;;;4902964;29;20233;-71
2022/07/19 00:38:10;;;;;;;2.58;2.33;;;18.30;99.90;;;;;;4917698;29;20084;-72
2022/07/19 00:40:37;;;;;;;2.58;2.38;;;18.30;99.90;;;;;;4892034;29;20050;-71
2022/07/19 00:43:03;;;;;;;5.95;2.75;;;18.30;99.90;;;;;;4902816;29;20035;-71
2022/07/19 00:45:29;;;;;;;2.30;2.10;;;18.30;99.90;;;;;;4908199;29;20032;-71
2022/07/19 00:47:55;;;;;;;3.88;2.08;;;18.30;99.90;;;;;;4916785;29;20028;-71
2022/07/19 00:50:22;;;;;;;3.83;2.47;;;18.20;99.90;;;;;;4914328;29;20043;-72
2022/07/19 00:52:51;;;;;;;2.63;2.25;;;18.20;99.90;;;;;;4919425;29;20375;-71
2022/07/19 00:55:19;;;;;;;2.45;2.25;;;18.20;99.90;;;;;;4904105;29;20496;-72
2022/07/19 00:57:46;;;;;;;4.63;2.88;;;18.10;99.90;;;;;;4916738;29;20042;-71
2022/07/19 01:00:12;;;;;;;3.72;2.30;;;18.10;99.90;;;;;;4921391;29;20438;-71
2022/07/19 01:02:38;;;;;;;3.30;2.60;;;18.10;99.90;;;;;;4922873;29;20036;-72
2022/07/19 01:05:06;;;;;;;3.20;2.75;;;18.10;99.90;;;;;;4912035;29;20333;-72
2022/07/19 01:07:34;;;;;;;3.13;2.67;;;18.10;99.90;;;;;;4917038;29;20039;-71
2022/07/19 01:10:04;;;;;;;3.25;2.33;;;18.00;99.90;;;;;;4911061;29;20174;-72
2022/07/19 01:12:31;;;;;;;5.15;2.55;;;18.10;99.90;;;;;;4916264;29;20359;-71
2022/07/19 01:14:57;;;;;;;2.63;2.42;;;18.00;99.90;;;;;;4915481;29;20131;-72
2022/07/19 01:17:23;;;;;;;2.50;2.10;;;18.00;99.90;;;;;;4899413;29;20040;-71
2022/07/19 01:19:49;;;;;;;2.22;2.08;;;17.90;99.90;;;;;;4912428;29;20063;-72
2022/07/19 01:22:15;;;;;;;3.63;2.65;;;17.90;99.90;;;;;;4916817;29;20034;-72
2022/07/19 01:24:40;;;;;;;2.88;2.38;;;17.90;99.90;;;;;;4916094;29;20117;-72
2022/07/19 01:27:07;;;;;;;5.75;2.35;;;17.90;99.90;;;;;;4917287;29;20114;-71
2022/07/19 01:29:36;;;;;;;3.67;2.28;;;17.90;99.90;;;;;;4918343;29;20483;-71
2022/07/19 01:32:02;;;;;;;3.42;2.47;;;18.00;99.90;;;;;;4910643;29;20029;-71
2022/07/19 01:34:28;;;;;;;2.65;2.28;;;18.00;99.90;;;;;;4905926;29;20499;-72
2022/07/19 01:36:54;;;;;;;3.42;2.38;;;18.00;99.90;;;;;;4916978;29;20031;-71
2022/07/19 01:39:19;;;;;;;3.90;2.00;;;18.00;99.90;;;;;;4909916;29;20592;-72
2022/07/19 01:41:45;;;;;;;2.83;2.40;;;18.00;99.90;;;;;;4916249;29;20511;-72
2022/07/19 01:44:10;;;;;;;4.28;2.20;;;18.00;99.90;;;;;;4913477;29;20028;-71
2022/07/19 01:46:36;;;;;;;2.67;2.40;;;18.00;99.90;;;;;;4911717;29;20038;-71
2022/07/19 01:49:02;;;;;;;3.13;2.25;;;18.00;99.90;;;;;;4915916;29;20024;-71
2022/07/19 01:51:28;;;;;;;5.45;2.42;;;17.90;99.90;;;;;;4920347;29;20051;-72
2022/07/19 01:53:53;;;;;;;2.30;2.10;;;18.00;99.90;;;;;;4914506;29;20046;-71
2022/07/19 01:56:19;;;;;;;4.32;2.15;;;18.00;99.90;;;;;;4905325;29;20058;-71
2022/07/19 01:58:45;;;;;;;4.47;2.40;;;18.00;99.90;;;;;;4905729;29;20193;-71
2022/07/19 02:01:11;;;;;;;2.55;2.20;;;18.00;99.90;;;;;;4914245;29;20106;-71
2022/07/19 02:03:36;;;;;;;4.82;2.53;;;18.00;99.90;;;;;;4922195;29;20045;-71
2022/07/19 02:06:02;;;;;;;4.55;2.53;;;18.00;99.90;;;;;;4908439;29;20028;-71
2022/07/19 02:08:28;;;;;;;2.97;2.40;;;18.10;99.90;;;;;;4909206;29;20075;-72
2022/07/19 02:10:53;;;;;;;3.25;2.35;;;18.10;99.90;;;;;;4921706;29;20044;-72
2022/07/19 02:13:19;;;;;;;4.50;2.08;;;18.10;99.90;;;;;;4912909;29;20060;-72
2022/07/19 02:15:45;;;;;;;2.75;2.33;;;18.10;99.90;;;;;;4913157;29;20035;-72
2022/07/19 02:18:11;;;;;;;3.85;2.47;;;18.10;99.90;;;;;;4918847;29;20043;-71
2022/07/19 02:20:37;;;;;;;2.17;1.98;;;18.10;99.90;;;;;;4907392;29;20206;-72
2022/07/19 02:23:03;;;;;;;6.03;2.83;;;18.10;99.90;;;;;;4920803;29;20119;-72
2022/07/19 02:25:29;;;;;;;5.05;2.35;;;18.10;99.90;;;;;;4907954;29;20094;-72
2022/07/19 02:27:54;;;;;;;3.00;2.70;;;18.10;99.90;;;;;;4921293;29;20498;-72
2022/07/19 02:30:20;;;;;;;2.88;2.53;;;18.10;99.90;;;;;;4914433;29;20036;-72
2022/07/19 02:32:46;;;;;;;3.53;2.47;;;18.10;99.90;;;;;;4918523;29;20027;-72
2022/07/19 02:35:12;;;;;;;2.60;2.40;;;18.20;99.90;;;;;;4904052;29;20043;-71
2022/07/19 02:37:41;;;;;;;2.05;1.60;;;18.20;99.90;;;;;;4901640;29;20035;-72
2022/07/19 02:40:08;;;;;;;3.50;2.28;;;18.30;99.90;;;;;;4914090;29;20032;-72
2022/07/19 02:42:34;;;;;;;3.50;2.42;;;18.40;99.90;;;;;;4917209;29;20028;-72
2022/07/19 02:44:59;;;;;;;2.30;2.10;;;18.40;99.90;;;;;;4910174;29;20034;-72
2022/07/19 02:47:25;;;;;;;3.08;2.40;;;18.40;99.90;;;;;;4918050;29;20059;-72
2022/07/19 02:49:51;;;;;;;6.28;2.50;;;18.30;99.90;;;;;;4920752;29;20436;-72
2022/07/19 02:52:17;;;;;;;3.47;2.78;;;18.30;99.90;;;;;;4902932;29;20345;-71
2022/07/19 02:54:42;;;;;;;4.28;2.20;;;18.30;99.90;;;;;;4919351;29;20893;-72
2022/07/19 02:57:08;;;;;;;5.90;2.92;;;18.30;99.90;;;;;;4921133;29;20236;-71
2022/07/19 02:59:34;;;;;;;3.13;2.47;;;18.20;99.90;;;;;;4922195;29;20062;-71
2022/07/19 03:01:59;;;;;;;3.17;2.15;;;18.20;99.90;;;;;;4914963;29;20094;-72
2022/07/19 03:04:25;;;;;;;2.95;2.65;;;18.20;99.90;;;;;;4915618;29;20044;-72
2022/07/19 03:06:51;;;;;;;2.90;2.42;;;18.10;99.90;;;;;;4902508;29;20039;-71
2022/07/19 03:09:16;;;;;;;4.13;2.20;;;18.10;99.90;;;;;;4911443;29;20039;-72
2022/07/19 03:11:43;;;;;;;3.97;2.53;;;18.10;99.90;;;;;;4910100;29;20043;-71
2022/07/19 03:14:08;;;;;;;4.72;2.47;;;18.00;99.90;;;;;;4913627;29;20039;-72
2022/07/19 03:16:34;;;;;;;4.60;2.97;;;18.00;99.90;;;;;;4905232;29;20096;-72
2022/07/19 03:19:00;;;;;;;2.50;2.20;;;18.00;99.90;;;;;;4916447;29;20032;-71
2022/07/19 03:21:25;;;;;;;3.17;2.60;;;18.00;99.90;;;;;;4917421;29;20413;-72
2022/07/19 03:23:51;;;;;;;4.85;2.45;;;17.90;99.90;;;;;;4920178;29;20354;-71
2022/07/19 03:26:17;;;;;;;3.92;2.88;;;17.90;99.90;;;;;;4915890;29;20031;-71
2022/07/19 03:28:43;;;;;;;2.72;2.30;;;17.90;99.90;;;;;;4915945;29;20531;-72
2022/07/19 03:31:09;;;;;;;3.80;2.70;;;17.90;99.90;;;;;;4912770;29;20482;-72
2022/07/19 03:33:35;;;;;;;2.90;2.30;;;17.90;99.90;;;;;;4912126;29;20039;-72
2022/07/19 03:36:01;;;;;;;5.47;2.53;;;17.90;99.90;;;;;;4917148;29;20099;-72
2022/07/19 03:38:27;;;;;;;9.73;2.60;;;17.90;99.90;;;;;;4917041;29;20106;-71
2022/07/19 03:40:52;;;;;;;6.40;2.95;;;17.90;99.90;;;;;;4920306;29;20043;-71
2022/07/19 03:43:20;;;;;;;3.95;2.40;;;17.80;99.90;;;;;;4922300;29;20366;-71
2022/07/19 03:45:46;;;;;;;4.68;2.30;;;17.80;99.90;;;;;;4917560;29;20137;-72
2022/07/19 03:48:12;;;;;;;3.92;2.75;;;17.70;99.90;;;;;;4921282;29;20127;-71
2022/07/19 03:50:39;;;;;;;3.40;2.65;;;17.70;99.90;;;;;;4914634;29;20479;-71
2022/07/19 03:53:05;;;;;;;2.75;2.50;;;17.60;99.90;;;;;;4914459;29;20429;-71
2022/07/19 03:55:30;;;;;;;4.50;2.38;;;17.60;99.90;;;;;;4916300;29;20230;-71
2022/07/19 03:57:56;;;;;;;3.00;2.30;;;17.50;99.90;;;;;;4915701;29;20127;-72
2022/07/19 04:00:22;;;;;;;3.28;2.97;;;17.50;99.90;;;;;;4910550;29;20054;-71
2022/07/19 04:02:49;;;;;;;5.10;2.95;;;17.40;99.90;;;;;;4916580;29;20035;-71
2022/07/19 04:05:15;;;;;;;5.65;2.50;;;17.40;99.90;;;;;;4920467;29;20580;-72
2022/07/19 04:07:40;;;;;;;3.70;3.03;;;17.40;99.90;;;;;;4905655;29;20399;-72
2022/07/19 04:10:06;;;;;;;6.72;3.10;;;17.30;99.90;;;;;;4902555;29;20063;-71
2022/07/19 04:12:33;;;;;;;4.50;2.65;;;17.30;99.90;;;;;;4905749;29;20036;-71
2022/07/19 04:14:59;;;;;;;4.53;3.10;;;17.20;99.90;;;;;;4902319;29;20036;-72
2022/07/19 04:17:24;;;;;;;16.67;4.30;;;17.20;99.90;;;;;;4903340;29;20197;-71
2022/07/19 04:19:50;;;;;;;14.43;3.78;;;17.20;99.90;;;;;;4918854;29;20038;-71
2022/07/19 04:22:16;;;;;;;11.75;3.88;;;17.20;99.90;;;;;;4910767;29;20360;-72
2022/07/19 04:24:41;;;;;;;7.07;2.95;;;17.20;99.90;;;;;;4921622;29;20486;-71
2022/07/19 04:27:07;;;;;;;5.65;2.72;;;17.30;99.90;;;;;;4910556;29;20043;-71
2022/07/19 04:29:33;;;;;;;7.28;2.90;;;17.30;99.90;;;;;;4890673;29;20437;-72
2022/07/19 04:31:58;;;;;;;6.15;2.92;;;17.30;99.90;;;;;;4917841;29;20044;-71
2022/07/19 04:34:24;;;;;;;4.82;2.80;;;17.30;99.90;;;;;;4916889;29;20032;-71
2022/07/19 04:36:50;;;;;;;6.80;2.65;;;17.40;99.90;;;;;;4901916;29;20032;-72
2022/07/19 04:39:15;;;;;;;5.93;2.50;;;17.50;99.90;;;;;;4921400;29;20067;-71
2022/07/19 04:41:41;;;;;;;2.67;2.30;;;17.50;99.90;;;;;;4899483;29;20357;-71
2022/07/19 04:44:07;;;;;;;5.60;3.40;;;17.60;99.90;;;;;;4918024;29;20103;-71
2022/07/19 04:46:32;;;;;;;7.38;3.00;;;17.60;99.90;;;;;;4918499;29;20120;-71
2022/07/19 04:48:58;;;;;;;3.58;2.55;;;17.70;99.90;;;;;;4918016;29;20050;-71
2022/07/19 04:51:24;;;;;;;4.97;2.63;;;17.70;99.90;;;;;;4913513;29;20043;-72
2022/07/19 04:53:49;;;;;;;5.03;2.65;;;17.80;99.90;;;;;;4923135;29;20538;-72
2022/07/19 04:56:15;;;;;;;5.53;2.50;;;17.80;99.90;;;;;;4905379;29;20501;-72
2022/07/19 04:58:41;;;;;;;4.70;2.67;;;17.90;99.90;;;;;;4917229;29;20087;-72
2022/07/19 05:01:06;;;;;;;4.72;2.78;;;17.90;99.90;;;;;;4920565;29;21008;-71
2022/07/19 05:03:32;;;;;;;4.57;2.40;;;18.00;99.90;;;;;;4913182;29;20057;-71
2022/07/19 05:05:57;;;;;;;3.55;2.33;;;18.10;99.90;;;;;;4914593;29;20063;-72
2022/07/19 05:08:23;;;;;;;4.38;2.45;;;18.10;99.90;;;;;;4921621;29;20643;-71
2022/07/19 05:10:49;;;;;;;9.52;2.80;;;18.20;99.90;;;;;;4915990;29;20396;-71
2022/07/19 05:13:14;;;;;;;4.95;2.47;;;18.40;99.90;;;;;;4911159;29;20124;-71
2022/07/19 05:15:40;;;;;;;5.68;2.25;;;18.50;99.90;;;;;;4921560;29;20035;-72
2022/07/19 05:18:06;;;;;;;6.65;2.35;;;18.50;99.90;;;;;;4902868;29;20059;-72
2022/07/19 05:20:31;;;;;;;2.88;2.17;;;18.60;99.90;;;;;;4911256;29;20043;-71
2022/07/19 05:22:57;;;;;;;4.10;2.85;;;18.70;99.90;;;;;;4919569;29;20019;-71
2022/07/19 05:25:23;;;;;;;5.47;2.67;;;18.70;99.90;;;;;;4922438;29;20039;-71
2022/07/19 05:27:48;;;;;;;4.25;2.35;;;18.80;99.90;;;;;;4920326;29;20036;-71
2022/07/19 05:30:14;;;;;;;6.55;2.75;;;18.80;99.90;;;;;;4920922;29;20059;-72
2022/07/19 05:32:40;;;;;;;5.03;2.70;;;18.90;99.90;;;;;;4914908;29;20032;-71
2022/07/19 05:35:06;;;;;;;6.78;2.65;;;19.00;99.90;;;;;;4918811;29;20043;-71
2022/07/19 05:37:32;;;;;;;4.70;2.53;;;19.00;99.90;;;;;;4915173;29;20032;-72
2022/07/19 05:39:57;;;;;;;3.72;2.05;;;19.10;99.90;;;;;;4916939;29;20103;-71
2022/07/19 05:42:23;;;;;;;7.10;3.03;;;19.20;99.90;;;;;;4910688;29;20042;-71
2022/07/19 05:44:48;;;;;;;6.82;3.05;;;19.20;99.90;;;;;;4912711;29;20091;-71
2022/07/19 05:47:15;;;;;;;6.85;2.42;;;19.30;99.90;;;;;;4915072;29;20079;-72
2022/07/19 05:49:41;;;;;;;9.38;2.63;;;19.40;99.90;;;;;;4912693;29;20430;-71
2022/07/19 05:52:07;;;;;;;3.55;2.55;;;19.50;99.90;;;;;;4915529;29;20119;-72
2022/07/19 05:54:32;;;;;;;5.65;2.22;;;19.60;99.90;;;;;;4913090;29;20078;-71
2022/07/19 05:56:58;;;;;;;6.13;2.65;;;19.60;99.90;;;;;;4917162;29;20508;-71
2022/07/19 05:59:24;;;;;;;4.47;2.20;;;19.70;99.90;;;;;;4921249;29;20023;-72
2022/07/19 06:01:49;;;;;;;3.55;2.17;;;19.70;99.90;;;;;;4915357;29;20582;-72
2022/07/19 06:04:16;;;;;;;3.30;2.05;;;19.80;99.90;;;;;;4919894;29;20035;-72
2022/07/19 06:06:42;;;;;;;2.92;2.63;;;19.90;99.90;;;;;;4918765;29;20067;-72
2022/07/19 06:09:09;;;;;;;6.75;2.47;;;20.00;99.90;;;;;;4913714;29;20095;-72
2022/07/19 06:11:36;;;;;;;5.22;2.60;;;20.10;99.90;;;;;;4919147;29;20100;-72
2022/07/19 06:14:02;;;;;;;4.72;2.47;;;20.10;99.90;;;;;;4915148;29;20058;-72
2022/07/19 06:16:28;;;;;;;6.32;2.50;;;20.20;99.90;;;;;;4918593;29;20043;-71
2022/07/19 06:18:54;;;;;;;5.78;2.50;;;20.30;99.90;;;;;;4918959;29;20399;-72
2022/07/19 06:21:21;;;;;;;6.25;2.65;;;20.50;99.90;;;;;;4920973;29;20408;-72
2022/07/19 06:23:47;;;;;;;3.40;2.38;;;20.50;99.90;;;;;;4918285;29;20432;-72
2022/07/19 06:26:14;;;;;;;4.82;2.55;;;20.70;99.90;;;;;;4905030;29;20034;-71
2022/07/19 06:28:39;;;;;;;7.57;2.10;;;20.80;99.90;;;;;;4918767;29;20046;-71
2022/07/19 06:31:10;;;;;;;4.90;2.45;;;20.90;99.90;;;;;;4910598;29;20044;-71
2022/07/19 06:33:43;;;;;;;3.70;2.60;;;21.00;99.90;;;;;;4918855;29;20432;-72
2022/07/19 06:36:09;;;;;;;5.53;2.72;;;21.20;99.90;;;;;;4914571;29;20100;-72
2022/07/19 06:38:35;;;;;;;5.03;2.38;;;21.40;99.90;;;;;;4923304;29;20050;-71
2022/07/19 06:41:01;;;;;;;9.23;2.53;;;21.60;99.90;;;;;;4917828;29;20073;-72
2022/07/19 06:43:27;;;;;;;6.05;2.50;;;21.70;99.90;;;;;;4918521;29;20164;-72
2022/07/19 06:45:53;;;;;;;7.10;2.22;;;21.90;99.90;;;;;;4917184;29;20596;-72
2022/07/19 06:48:18;;;;;;;4.25;2.20;;;22.10;99.90;;;;;;4915069;29;20544;-72
2022/07/19 06:50:44;;;;;;;4.13;2.17;;;22.40;99.90;;;;;;4911993;29;20419;-72
2022/07/19 06:53:10;;;;;;;3.78;2.00;;;22.60;99.90;;;;;;4911767;29;20049;-72
2022/07/19 06:55:36;;;;;;;5.55;2.05;;;22.70;99.90;;;;;;4914608;29;20321;-72
2022/07/19 06:58:01;;;;;;;5.18;2.55;;;23.00;99.90;;;;;;4911016;29;20110;-72
2022/07/19 07:00:27;;;;;;;8.15;2.40;;;23.30;99.90;;;;;;4909712;29;20038;-71
2022/07/19 07:02:53;;;;;;;3.90;2.00;;;23.50;99.90;;;;;;4913067;29;20099;-68
2022/07/19 07:05:18;;;;;;;8.52;2.10;;;23.70;99.90;;;;;;4911138;29;20416;-67
2022/07/19 07:07:44;;;;;;;5.82;2.20;;;24.00;99.90;;;;;;4561594;29;10000205;-68
2022/07/19 07:10:10;;;;;;;5.10;2.05;;;24.20;99.90;;;;;;4904850;29;20040;-67
2022/07/19 07:12:37;;;;;;;8.52;1.92;;;24.50;99.90;;;;;;4895756;29;20036;-67
2022/07/19 07:15:04;;;;;;;6.70;2.83;;;24.70;99.90;;;;;;4898044;29;20032;-67
2022/07/19 07:17:29;;;;;;;5.32;2.17;;;24.80;99.90;;;;;;4903470;29;20256;-67
2022/07/19 07:19:56;;;;;;;5.63;2.03;;;25.00;99.90;;;;;;4903522;29;20313;-67
2022/07/19 07:22:21;;;;;;;7.25;2.42;;;25.10;99.60;;;;;;4900206;29;20107;-68
2022/07/19 07:24:47;;;;;;;3.88;2.10;;;25.30;99.30;;;;;;4908035;29;20481;-68
2022/07/19 07:27:13;;;;;;;7.43;2.35;;;25.60;98.40;;;;;;4908745;29;20042;-67
2022/07/19 07:29:38;;;;;;;5.47;2.40;;;25.80;98.90;;;;;;4907498;29;20031;-68
2022/07/19 07:32:04;;;;;;;8.07;2.20;;;26.00;93.70;;;;;;4902487;29;20114;-68
2022/07/19 07:34:30;;;;;;;7.13;2.10;;;26.20;96.30;;;;;;4909430;29;20065;-68
2022/07/19 07:36:56;;;;;;;4.22;1.98;;;26.50;95.70;;;;;;4903586;29;20482;-68
2022/07/19 07:39:21;;;;;;;4.13;2.00;;;28.30;87.20;;;;;;4903884;29;20065;-68
2022/07/19 07:41:47;;;;;;;5.15;2.20;;;28.50;76.90;;;;;;4905788;29;20040;-67
2022/07/19 07:44:14;;;;;;;5.25;1.77;;;28.50;76.70;;;;;;4902998;29;20036;-68
2022/07/19 07:46:39;;;;;;;6.57;1.85;;;28.70;72.90;;;;;;4906520;29;20275;-68
2022/07/19 07:49:06;;;;;;;4.35;2.25;;;29.90;71.70;;;;;;4907833;29;20315;-68
2022/07/19 07:51:32;;;;;;;9.60;1.63;;;31.20;69.40;;;;;;4897827;29;20107;-66
2022/07/19 07:54:00;;;;;;;5.07;1.45;;;31.80;57.60;;;;;;4908231;29;20039;-66
2022/07/19 07:56:25;;;;;;;4.70;1.60;;;34.20;53.90;;;;;;4906538;29;20059;-65
2022/07/19 07:58:51;;;;;;;6.47;1.55;;;37.40;47.70;;;;;;4913295;29;20082;-65
2022/07/19 08:01:17;;;;;;;4.95;1.70;;;40.20;43.20;;;;;;4905598;29;20036;-66
2022/07/19 08:03:43;;;;;;;4.07;1.23;;;41.80;35.70;;;;;;4904512;29;20059;-66
2022/07/19 08:06:10;;;;;;;7.95;1.88;;;42.90;34.70;;;;;;4915826;29;20031;-66
2022/07/19 08:08:36;;;;;;;4.35;1.48;;;44.00;32.40;;;;;;4896102;29;20058;-66
2022/07/19 08:11:03;;;;;;;4.10;1.80;;;45.30;31.10;;;;;;4910425;29;20118;-66
2022/07/19 08:13:29;;;;;;;4.72;1.55;;;45.20;29.70;;;;;;4884857;29;20044;-66
2022/07/19 08:15:55;;;;;;;6.00;1.63;;;45.00;29.30;;;;;;4892870;29;20451;-66
2022/07/19 08:18:21;;;;;;;8.57;1.80;;;45.40;29.60;;;;;;4909575;29;20534;-67
2022/07/19 08:20:46;;;;;;;7.70;1.60;;;46.80;29.30;;;;;;4901941;29;20043;-67
2022/07/19 08:23:12;;;;;;;3.00;1.70;;;47.20;29.40;;;;;;4896498;29;20092;-68
2022/07/19 08:25:38;;;;;;;3.90;1.23;;;47.70;26.40;;;;;;4904374;29;20031;-67
2022/07/19 08:28:04;;;;;;;7.18;2.15;;;47.70;27.50;;;;;;4885804;29;20036;-68
2022/07/19 08:30:30;;;;;;;6.00;1.55;;;47.70;26.40;;;;;;4896816;29;20040;-68
2022/07/19 08:32:56;;;;;;;6.50;2.10;;;47.70;26.80;;;;;;4886938;29;20062;-68
2022/07/19 08:35:22;;;;;;;4.60;2.17;;;47.70;25.60;;;;;;4897335;29;21687;-68
2022/07/19 08:37:47;;;;;;;7.57;2.17;;;47.80;25.20;;;;;;4908869;29;20035;-68
2022/07/19 08:40:13;;;;;;;10.38;1.95;;;48.20;27.50;;;;;;4920165;29;20075;-69
2022/07/19 08:42:39;;;;;;;7.97;2.08;;;48.60;28.50;;;;;;4919474;29;20818;-68
2022/07/19 08:45:08;;;;;;;6.03;2.08;;;48.80;26.60;;;;;;4916789;29;20031;-68
2022/07/19 08:47:35;;;;;;;7.85;2.22;;;49.10;27.30;;;;;;4917590;29;20127;-68
2022/07/19 08:50:03;;;;;;;4.95;2.17;;;49.40;28.10;;;;;;4907549;29;20413;-68
2022/07/19 08:52:31;;;;;;;5.82;2.22;;;49.40;24.80;;;;;;4893492;29;20040;-68
2022/07/19 08:54:57;;;;;;;8.10;2.38;;;49.00;24.50;;;;;;4896825;29;20510;-68
2022/07/19 09:00:08;;;;;;;7.15;2.17;;;49.50;26.90;;;;;;4911319;29;20455;-67
2022/07/19 09:02:33;;;;;;;7.28;2.40;;;49.30;25.40;;;;;;4907606;29;20039;-68
2022/07/19 09:05:08;;;;;;;5.13;2.10;;;49.20;24.70;;;;;;4908474;29;20020;-68
2022/07/19 09:07:38;;;;;;;7.10;2.33;;;49.40;23.90;;;;;;4913738;29;20036;-68
2022/07/19 09:10:16;;;;;;;5.10;2.13;;;48.80;25.10;;;;;;4917468;29;20031;-67
2022/07/19 09:13:00;;;;;;;7.22;2.17;;;48.80;25.70;;;;;;4910988;29;20043;-68
2022/07/19 09:15:44;;;;;;;6.10;2.30;;;49.00;23.40;;;;;;4893651;29;20154;-68
2022/07/19 09:18:19;;;;;;;5.30;2.45;;;48.90;26.30;;;;;;4913610;29;20034;-68
2022/07/19 09:20:46;;;;;;;6.07;2.45;;;49.40;25.10;;;;;;4916137;29;20087;-68
2022/07/19 09:23:12;;;;;;;7.75;3.42;;;48.90;24.70;;;;;;4909631;29;20059;-68
2022/07/19 09:25:41;;;;;;;5.30;2.88;;;49.00;23.10;;;;;;4913735;29;20024;-67
2022/07/19 09:28:07;;;;;;;8.52;3.05;;;48.80;24.90;;;;;;4909429;29;20055;-67
2022/07/19 09:30:39;;;;;;;6.40;2.70;;;49.60;24.60;;;;;;4908945;29;20082;-68
2022/07/19 09:33:11;;;;;;;6.88;3.10;;;49.30;23.90;;;;;;4914024;29;20527;-68
2022/07/19 09:35:43;;;;;;;5.80;2.92;;;49.20;23.60;;;;;;4909547;29;20032;-67
2022/07/19 09:38:32;;;;;;;5.43;2.88;;;49.60;24.00;;;;;;4915391;29;20401;-68
2022/07/19 09:41:06;;;;;;;7.33;3.17;;;48.90;21.90;;;;;;4917647;29;20635;-68
2022/07/19 09:43:48;;;;;;;6.30;2.70;;;48.60;24.70;;;;;;4912661;29;20115;-68
2022/07/19 09:46:31;;;;;;;7.45;2.97;;;48.00;24.00;;;;;;4915922;29;20100;-67
2022/07/19 09:49:04;;;;;;;6.25;3.08;;;48.90;23.40;;;;;;4914894;29;20027;-68
2022/07/19 09:51:34;;;;;;;5.32;3.25;;;48.70;22.80;;;;;;4913182;29;20043;-67
2022/07/19 09:54:01;;;;;;;7.95;3.15;;;48.60;24.30;;;;;;4913519;29;20031;-68
2022/07/19 09:56:29;;;;;;;8.52;3.42;;;48.30;21.90;;;;;;4905991;29;20075;-68
2022/07/19 09:58:56;;;;;;;7.32;3.25;;;48.50;23.30;;;;;;4909113;29;20366;-68
2022/07/19 10:01:22;;;;;;;10.43;3.38;;;48.70;24.50;;;;;;4912045;29;20110;-68
2022/07/19 10:03:49;;;;;;;6.07;2.75;;;48.00;22.90;;;;;;4917597;29;20031;-67
2022/07/19 10:06:15;;;;;;;5.65;3.47;;;48.00;22.40;;;;;;4908830;29;20077;-68
2022/07/19 10:08:41;;;;;;;5.43;2.85;;;47.80;26.70;;;;;;4904912;29;20436;-67
2022/07/19 10:11:06;;;;;;;5.40;2.72;;;48.10;24.80;;;;;;4914161;29;20070;-68
2022/07/19 10:13:33;;;;;;;7.07;3.58;;;47.80;22.40;;;;;;4914857;29;20512;-67
2022/07/19 10:16:02;;;;;;;5.63;3.33;;;47.90;24.10;;;;;;4915720;29;20131;-67
2022/07/19 10:18:37;;;;;;;5.25;2.85;;;48.20;23.80;;;;;;4904303;29;20426;-68
2022/07/19 10:21:03;;;;;;;10.02;2.72;;;47.40;24.80;;;;;;4912334;29;20567;-68
2022/07/19 10:23:31;;;;;;;11.50;3.17;;;47.40;25.00;;;;;;4915200;29;21018;-67
2022/07/19 10:25:57;;;;;;;6.40;3.00;;;47.20;24.10;;;;;;4914368;29;20028;-68
2022/07/19 10:28:29;;;;;;;10.98;4.15;;;47.10;25.00;;;;;;4913690;29;20050;-67
2022/07/19 10:30:56;;;;;;;5.68;2.80;;;47.30;23.60;;;;;;4909584;29;20063;-68
2022/07/19 10:33:33;;;;;;;3.47;2.78;;;47.20;25.60;;;;;;4907517;29;20399;-68
2022/07/19 10:36:32;;;;;;;7.38;2.92;;;46.40;26.30;;;;;;4889842;29;20036;-67
2022/07/19 10:39:24;;;;;;;4.60;2.92;;;46.50;24.80;;;;;;4915051;29;20024;-68
2022/07/19 10:42:10;;;;;;;4.88;2.38;;;46.30;24.80;;;;;;4912140;29;20078;-67
2022/07/19 10:45:02;;;;;;;3.13;2.63;;;46.20;25.60;;;;;;4911847;29;20050;-67
2022/07/19 10:47:35;;;;;;;5.47;2.80;;;45.90;25.40;;;;;;4899401;29;20131;-67
2022/07/19 10:50:04;;;;;;;8.18;2.97;;;45.80;25.90;;;;;;4909189;29;20139;-67
2022/07/19 10:52:39;;;;;;;11.02;3.40;;;45.80;25.10;;;;;;4917659;29;20503;-67
2022/07/19 10:55:27;;;;;;;7.00;2.95;;;45.60;26.30;;;;;;4914242;29;20044;-67
2022/07/19 10:58:05;;;;;;;6.43;2.95;;;45.60;26.80;;;;;;4897209;29;20066;-68
2022/07/19 11:00:32;;;;;;;3.08;2.80;;;45.60;26.00;;;;;;4909683;29;20040;-68
2022/07/19 11:03:20;;;;;;;7.32;2.80;;;45.40;27.00;;;;;;4915617;29;20055;-67
2022/07/19 11:05:50;;;;;;;8.18;2.80;;;45.70;25.80;;;;;;4911232;29;20295;-67
2022/07/19 11:08:16;;;;;;;8.00;2.60;;;45.60;27.40;;;;;;4913524;29;20034;-68
2022/07/19 11:10:42;;;;;;;4.63;2.70;;;45.60;25.50;;;;;;4918886;29;20415;-68
2022/07/19 11:13:08;;;;;;;5.45;2.60;;;45.20;27.70;;;;;;4913902;29;20457;-67
2022/07/19 11:15:34;;;;;;;6.38;3.30;;;45.10;27.20;;;;;;4914973;29;20034;-68
2022/07/19 11:18:02;;;;;;;5.20;2.60;;;45.10;24.70;;;;;;4920321;29;20520;-67
2022/07/19 11:20:30;;;;;;;9.82;3.20;;;45.00;25.40;;;;;;4917694;29;20035;-67
2022/07/19 11:30:55;;;;;;;5.78;3.22;;;44.30;25.50;;;;;;5307429;23;20051;-73
2022/07/19 11:33:21;;;;;;;4.95;2.95;;;44.20;25.40;;;;;;4914428;29;20542;-73
2022/07/19 11:35:58;;;;;;;3.75;3.22;;;44.10;26.20;;;;;;4919591;29;20027;-73
2022/07/19 11:38:53;;;;;;;6.93;3.38;;;43.80;25.70;;;;;;4910610;29;20152;-73
2022/07/19 11:41:20;;;;;;;8.88;3.42;;;43.10;26.70;;;;;;4909004;29;20265;-73
2022/07/19 11:43:56;;;;;;;5.97;3.08;;;42.60;27.10;;;;;;4912444;29;20487;-73
2022/07/19 11:46:25;;;;;;;6.38;2.97;;;41.80;26.50;;;;;;4915397;29;20036;-72
2022/07/19 11:48:56;;;;;;;7.40;3.40;;;41.50;29.60;;;;;;4915449;29;20047;-73
2022/07/19 11:51:22;;;;;;;10.10;3.30;;;41.30;27.80;;;;;;4914927;29;20102;-72
2022/07/19 11:53:54;;;;;;;6.28;3.30;;;40.90;28.30;;;;;;4909784;29;20031;-73
2022/07/19 11:56:22;;;;;;;5.80;3.42;;;41.00;29.10;;;;;;4915781;29;20124;-73
2022/07/19 11:58:51;;;;;;;8.35;3.40;;;40.90;29.90;;;;;;4912618;29;20467;-73
2022/07/19 12:01:30;;;;;;;5.45;3.08;;;40.70;26.80;;;;;;4912287;29;20137;-72
2022/07/19 12:04:03;;;;;;;5.50;3.50;;;40.50;27.00;;;;;;4912288;29;20031;-72
2022/07/19 12:06:40;;;;;;;5.38;3.45;;;40.40;29.20;;;;;;4906319;29;20317;-73
2022/07/19 12:09:11;;;;;;;7.72;3.20;;;40.40;27.40;;;;;;4915937;29;20032;-74
2022/07/19 12:11:41;;;;;;;5.72;3.10;;;40.30;27.90;;;;;;4910827;29;20980;-72
2022/07/19 12:14:17;;;;;;;10.80;3.40;;;40.10;29.00;;;;;;4916750;29;20054;-72
2022/07/19 12:16:44;;;;;;;7.40;3.53;;;39.80;29.00;;;;;;4903278;29;20416;-74
2022/07/19 12:19:12;;;;;;;4.03;3.15;;;39.70;27.80;;;;;;4906140;29;20441;-73
2022/07/19 12:21:40;;;;;;;4.65;3.15;;;39.70;28.10;;;;;;5368106;23;20958;-72
2022/07/19 12:24:12;;;;;;;4.45;3.22;;;39.60;28.60;;;;;;4917012;29;20036;-72
2022/07/19 12:26:39;;;;;;;10.70;3.70;;;39.50;28.20;;;;;;4909232;29;20027;-72
2022/07/19 12:29:21;;;;;;;5.95;3.35;;;39.40;28.70;;;;;;4915346;29;20808;-72
2022/07/19 12:31:49;;;;;;;8.00;3.25;;;39.30;27.80;;;;;;4907868;29;20040;-72
2022/07/19 12:34:15;;;;;;;7.88;3.60;;;39.30;29.20;;;;;;4913804;29;20028;-72
2022/07/19 12:36:41;;;;;;;7.15;3.30;;;39.30;28.00;;;;;;4893511;29;20090;-72
2022/07/19 12:39:19;;;;;;;7.00;3.80;;;39.20;28.60;;;;;;4913293;29;20027;-72
2022/07/19 12:42:05;;;;;;;8.02;3.75;;;39.50;30.80;;;;;;4918156;29;20035;-72
2022/07/19 12:44:33;;;;;;;5.18;2.95;;;39.30;29.30;;;;;;4914404;29;20135;-73
2022/07/19 12:47:00;;;;;;;7.43;3.63;;;39.40;31.00;;;;;;4907892;29;20040;-73
2022/07/19 12:49:40;;;;;;;11.07;3.85;;;39.30;31.40;;;;;;4913329;29;20128;-72
2022/07/19 12:52:06;;;;;;;9.48;3.53;;;39.30;29.80;;;;;;4915669;29;20242;-72
2022/07/19 12:54:31;;;;;;;7.10;3.65;;;39.40;32.30;;;;;;4915394;29;20071;-72
2022/07/19 12:56:57;;;;;;;6.25;3.40;;;39.50;28.80;;;;;;4917420;29;20833;-72
2022/07/19 12:59:41;;;;;;;6.57;4.72;;;39.50;28.90;;;;;;4912924;29;20050;-72